Terminal Aerodrome Forecast
Issued by NWS Bismarck, ND

Home | Current Version | Previous Version | Graphics & Text | Print | Product List | Glossary On
Versions: 1 2 3 4 5 6 7 8 9 10 11 12 13 14
000
FTUS43 KBIS 290500
TAFISN
TAF
KISN 290531Z 2906/3006 33007KT P6SM SCT070
      TEMPO 2909/2912 5SM -SHRA OVC050
     FM291800 01011KT P6SM SCT250
     FM300300 05009KT P6SM SKC=

USA.gov is the U.S. government's official web portal to all federal, state and local government web resources and services.